sensor_id;sensor_type;location;lat;lon;timestamp;pressure;altitude;pressure_sealevel;temperature;humidity
60069;BME280;45945;53.350;55.922;2022-10-16T00:00:51;100731.63;;;7.02;82.82
60069;BME280;45945;53.350;55.922;2022-10-16T00:01:52;100742.75;;;7.16;83.03
60069;BME280;45945;53.350;55.922;2022-10-16T00:02:53;100737.63;;;7.01;82.64
60069;BME280;45945;53.350;55.922;2022-10-16T00:03:55;100748.03;;;7.01;83.04
60069;BME280;45945;53.350;55.922;2022-10-16T00:04:56;100745.34;;;7.00;83.24
60069;BME280;45945;53.350;55.922;2022-10-16T00:05:59;100750.81;;;7.04;83.34
60069;BME280;45945;53.350;55.922;2022-10-16T00:07:01;100751.84;;;7.08;82.89
60069;BME280;45945;53.350;55.922;2022-10-16T00:08:02;100752.19;;;7.14;82.33
60069;BME280;45945;53.350;55.922;2022-10-16T00:09:03;100747.41;;;7.05;82.49
60069;BME280;45945;53.350;55.922;2022-10-16T00:10:04;100758.19;;;6.97;83.49
60069;BME280;45945;53.350;55.922;2022-10-16T00:11:09;100753.00;;;6.97;83.52
60069;BME280;45945;53.350;55.922;2022-10-16T00:12:10;100757.56;;;7.01;84.15
60069;BME280;45945;53.350;55.922;2022-10-16T00:13:11;100755.69;;;6.98;83.53
60069;BME280;45945;53.350;55.922;2022-10-16T00:14:14;100761.91;;;7.18;82.83
60069;BME280;45945;53.350;55.922;2022-10-16T00:15:15;100755.59;;;7.13;83.41
60069;BME280;45945;53.350;55.922;2022-10-16T00:16:17;100763.00;;;7.22;82.96
60069;BME280;45945;53.350;55.922;2022-10-16T00:17:19;100757.63;;;7.02;82.82
60069;BME280;45945;53.350;55.922;2022-10-16T00:18:20;100756.25;;;6.92;83.68
60069;BME280;45945;53.350;55.922;2022-10-16T00:19:21;100761.50;;;6.94;83.08
60069;BME280;45945;53.350;55.922;2022-10-16T00:20:22;100758.75;;;6.91;83.40
60069;BME280;45945;53.350;55.922;2022-10-16T00:21:42;100757.78;;;6.89;83.64
60069;BME280;45945;53.350;55.922;2022-10-16T00:23:01;100746.25;;;6.67;84.29
60069;BME280;45945;53.350;55.922;2022-10-16T00:24:05;100760.63;;;6.77;84.44
60069;BME280;45945;53.350;55.922;2022-10-16T00:25:08;100741.31;;;6.72;84.09
60069;BME280;45945;53.350;55.922;2022-10-16T00:26:14;100758.56;;;6.71;84.82
60069;BME280;45945;53.350;55.922;2022-10-16T00:27:16;100760.84;;;6.65;84.96
60069;BME280;45945;53.350;55.922;2022-10-16T00:28:17;100761.59;;;6.79;84.84
60069;BME280;45945;53.350;55.922;2022-10-16T00:29:18;100758.81;;;6.76;84.58
60069;BME280;45945;53.350;55.922;2022-10-16T00:30:19;100754.53;;;6.77;84.97
60069;BME280;45945;53.350;55.922;2022-10-16T00:31:21;100765.75;;;6.76;85.15
60069;BME280;45945;53.350;55.922;2022-10-16T00:32:23;100765.09;;;6.80;84.83
60069;BME280;45945;53.350;55.922;2022-10-16T00:33:27;100762.88;;;6.71;84.94
60069;BME280;45945;53.350;55.922;2022-10-16T00:34:28;100771.25;;;6.82;84.69
60069;BME280;45945;53.350;55.922;2022-10-16T00:35:30;100769.06;;;6.89;84.81
60069;BME280;45945;53.350;55.922;2022-10-16T00:36:32;100767.78;;;6.81;85.00
60069;BME280;45945;53.350;55.922;2022-10-16T00:37:33;100767.53;;;6.77;84.89
60069;BME280;45945;53.350;55.922;2022-10-16T00:38:34;100772.81;;;6.78;85.01
60069;BME280;45945;53.350;55.922;2022-10-16T00:39:35;100766.31;;;6.86;84.93
60069;BME280;45945;53.350;55.922;2022-10-16T00:40:36;100766.88;;;6.81;84.76
60069;BME280;45945;53.350;55.922;2022-10-16T00:41:37;100767.03;;;6.84;85.06
60069;BME280;45945;53.350;55.922;2022-10-16T00:42:38;100766.31;;;6.86;85.03
60069;BME280;45945;53.350;55.922;2022-10-16T00:44:54;100769.09;;;7.06;84.64
60069;BME280;45945;53.350;55.922;2022-10-16T00:46:01;100757.78;;;7.05;84.36
60069;BME280;45945;53.350;55.922;2022-10-16T00:47:02;100768.34;;;7.08;84.46
60069;BME280;45945;53.350;55.922;2022-10-16T00:48:03;100766.16;;;7.00;85.24
60069;BME280;45945;53.350;55.922;2022-10-16T00:49:11;100767.03;;;7.00;85.18
60069;BME280;45945;53.350;55.922;2022-10-16T00:50:18;100763.72;;;7.03;85.57
60069;BME280;45945;53.350;55.922;2022-10-16T00:51:25;100770.41;;;6.98;85.50
60069;BME280;45945;53.350;55.922;2022-10-16T00:52:29;100764.88;;;6.91;85.53
60069;BME280;45945;53.350;55.922;2022-10-16T00:53:30;100771.69;;;7.06;85.15
60069;BME280;45945;53.350;55.922;2022-10-16T00:54:32;100767.78;;;7.14;84.73
60069;BME280;45945;53.350;55.922;2022-10-16T00:55:34;100771.69;;;7.06;85.01
60069;BME280;45945;53.350;55.922;2022-10-16T00:56:35;100768.44;;;6.94;85.06
60069;BME280;45945;53.350;55.922;2022-10-16T00:57:37;100769.16;;;7.07;85.24
60069;BME280;45945;53.350;55.922;2022-10-16T00:58:38;100765.44;;;6.86;85.41
60069;BME280;45945;53.350;55.922;2022-10-16T00:59:40;100769.22;;;6.92;85.63
60069;BME280;45945;53.350;55.922;2022-10-16T01:00:42;100776.00;;;7.05;85.09
60069;BME280;45945;53.350;55.922;2022-10-16T01:01:43;100776.56;;;7.00;85.49
60069;BME280;45945;53.350;55.922;2022-10-16T01:02:44;100782.97;;;7.06;85.46
60069;BME280;45945;53.350;55.922;2022-10-16T01:03:45;100775.25;;;7.08;85.08
60069;BME280;45945;53.350;55.922;2022-10-16T01:04:51;100781.53;;;7.12;85.18
60069;BME280;45945;53.350;55.922;2022-10-16T01:07:27;100782.97;;;7.06;85.63
60069;BME280;45945;53.350;55.922;2022-10-16T01:08:42;100780.94;;;7.01;86.04
60069;BME280;45945;53.350;55.922;2022-10-16T01:11:19;100783.13;;;7.09;85.43
60069;BME280;45945;53.350;55.922;2022-10-16T01:12:31;100789.78;;;7.04;85.47
60069;BME280;45945;53.350;55.922;2022-10-16T01:13:43;100790.44;;;7.17;85.06
60069;BME280;45945;53.350;55.922;2022-10-16T01:15:01;100786.97;;;7.16;85.03
60069;BME280;45945;53.350;55.922;2022-10-16T01:16:22;100788.25;;;7.24;84.70
60069;BME280;45945;53.350;55.922;2022-10-16T01:17:35;100786.00;;;7.14;85.19
60069;BME280;45945;53.350;55.922;2022-10-16T01:21:02;100789.56;;;7.00;85.69
60069;BME280;45945;53.350;55.922;2022-10-16T01:22:05;100789.16;;;6.92;85.69
60069;BME280;45945;53.350;55.922;2022-10-16T01:25:53;100798.25;;;7.00;86.01
60069;BME280;45945;53.350;55.922;2022-10-16T01:28:14;100806.72;;;6.96;85.73
60069;BME280;45945;53.350;55.922;2022-10-16T01:29:30;100795.88;;;7.05;85.86
60069;BME280;45945;53.350;55.922;2022-10-16T01:30:34;100799.78;;;6.97;85.92
60069;BME280;45945;53.350;55.922;2022-10-16T01:31:40;100799.88;;;7.15;85.45
60069;BME280;45945;53.350;55.922;2022-10-16T01:32:53;100801.69;;;7.16;85.48
60069;BME280;45945;53.350;55.922;2022-10-16T01:34:02;100796.97;;;7.08;85.50
60069;BME280;45945;53.350;55.922;2022-10-16T01:35:23;100799.41;;;7.05;85.47
60069;BME280;45945;53.350;55.922;2022-10-16T01:36:29;100801.16;;;7.06;85.67
60069;BME280;45945;53.350;55.922;2022-10-16T01:37:39;100804.69;;;7.07;86.58
60069;BME280;45945;53.350;55.922;2022-10-16T01:38:43;100801.06;;;7.05;86.11
60069;BME280;45945;53.350;55.922;2022-10-16T01:39:46;100807.59;;;6.97;86.40
60069;BME280;45945;53.350;55.922;2022-10-16T01:40:54;100804.28;;;6.99;86.55
60069;BME280;45945;53.350;55.922;2022-10-16T01:42:12;100808.72;;;7.02;86.86
60069;BME280;45945;53.350;55.922;2022-10-16T01:43:19;100789.06;;;7.07;86.27
60069;BME280;45945;53.350;55.922;2022-10-16T01:44:32;100800.59;;;7.12;86.07
60069;BME280;45945;53.350;55.922;2022-10-16T01:45:34;100805.09;;;7.15;86.46
60069;BME280;45945;53.350;55.922;2022-10-16T01:46:37;100805.16;;;7.16;85.90
60069;BME280;45945;53.350;55.922;2022-10-16T01:47:40;100802.56;;;7.16;85.69
60069;BME280;45945;53.350;55.922;2022-10-16T01:48:42;100805.16;;;7.16;86.17
60069;BME280;45945;53.350;55.922;2022-10-16T01:49:44;100811.63;;;7.08;86.29
60069;BME280;45945;53.350;55.922;2022-10-16T01:51:01;100808.72;;;7.02;86.43
60069;BME280;45945;53.350;55.922;2022-10-16T01:52:07;100809.25;;;7.11;85.94
60069;BME280;45945;53.350;55.922;2022-10-16T01:53:12;100805.25;;;7.18;86.33
60069;BME280;45945;53.350;55.922;2022-10-16T01:54:16;100806.63;;;7.11;86.47
60069;BME280;45945;53.350;55.922;2022-10-16T01:55:30;100813.34;;;7.07;86.31
60069;BME280;45945;53.350;55.922;2022-10-16T01:56:34;100807.94;;;7.19;86.12
60069;BME280;45945;53.350;55.922;2022-10-16T01:57:39;100811.09;;;7.14;86.43
60069;BME280;45945;53.350;55.922;2022-10-16T01:58:46;100818.97;;;7.15;86.80
60069;BME280;45945;53.350;55.922;2022-10-16T01:59:52;100809.41;;;7.14;87.06
60069;BME280;45945;53.350;55.922;2022-10-16T02:00:55;100815.06;;;7.07;87.09
60069;BME280;45945;53.350;55.922;2022-10-16T02:02:05;100808.25;;;7.09;87.33
60069;BME280;45945;53.350;55.922;2022-10-16T02:03:07;100811.31;;;7.18;86.92
60069;BME280;45945;53.350;55.922;2022-10-16T02:04:15;100806.97;;;7.17;87.18
60069;BME280;45945;53.350;55.922;2022-10-16T02:05:29;100812.66;;;7.26;86.90
60069;BME280;45945;53.350;55.922;2022-10-16T02:06:31;100816.22;;;7.28;86.78
60069;BME280;45945;53.350;55.922;2022-10-16T02:07:32;100809.03;;;7.24;86.79
60069;BME280;45945;53.350;55.922;2022-10-16T02:08:34;100814.31;;;7.26;86.73
60069;BME280;45945;53.350;55.922;2022-10-16T02:09:36;100811.31;;;7.18;86.48
60069;BME280;45945;53.350;55.922;2022-10-16T02:10:38;100815.09;;;7.23;86.61
60069;BME280;45945;53.350;55.922;2022-10-16T02:11:39;100813.75;;;7.32;86.02
60069;BME280;45945;53.350;55.922;2022-10-16T02:12:45;100813.19;;;7.37;86.13
60069;BME280;45945;53.350;55.922;2022-10-16T02:13:53;100818.56;;;7.40;85.84
60069;BME280;45945;53.350;55.922;2022-10-16T02:14:56;100810.19;;;7.30;85.59
60069;BME280;45945;53.350;55.922;2022-10-16T02:15:58;100811.25;;;7.33;85.99
60069;BME280;45945;53.350;55.922;2022-10-16T02:16:59;100817.00;;;7.27;86.10
60069;BME280;45945;53.350;55.922;2022-10-16T02:18:05;100811.25;;;7.33;85.95
60069;BME280;45945;53.350;55.922;2022-10-16T02:19:07;100807.28;;;7.23;86.12
60069;BME280;45945;53.350;55.922;2022-10-16T02:20:09;100818.72;;;7.10;86.67
60069;BME280;45945;53.350;55.922;2022-10-16T02:21:19;100825.16;;;7.01;86.93
60069;BME280;45945;53.350;55.922;2022-10-16T02:22:39;100814.75;;;7.01;87.34
60069;BME280;45945;53.350;55.922;2022-10-16T02:23:45;100822.38;;;6.98;87.76
60069;BME280;45945;53.350;55.922;2022-10-16T02:26:07;100819.13;;;7.18;87.26
60069;BME280;45945;53.350;55.922;2022-10-16T02:27:14;100818.72;;;7.10;87.22
60069;BME280;45945;53.350;55.922;2022-10-16T02:28:24;100820.28;;;7.07;87.64
60069;BME280;45945;53.350;55.922;2022-10-16T02:29:27;100820.75;;;7.00;87.93
60069;BME280;45945;53.350;55.922;2022-10-16T02:30:41;100823.91;;;7.10;88.07
60069;BME280;45945;53.350;55.922;2022-10-16T02:31:46;100828.41;;;7.13;88.29
60069;BME280;45945;53.350;55.922;2022-10-16T02:32:53;100814.75;;;7.17;87.65
60069;BME280;45945;53.350;55.922;2022-10-16T02:33:56;100824.09;;;7.14;88.81
60069;BME280;45945;53.350;55.922;2022-10-16T02:34:59;100824.38;;;6.87;89.41
60069;BME280;45945;53.350;55.922;2022-10-16T02:36:02;100826.84;;;7.00;89.06
60069;BME280;45945;53.350;55.922;2022-10-16T02:37:04;100829.19;;;7.12;88.87
60069;BME280;45945;53.350;55.922;2022-10-16T02:38:06;100821.72;;;7.18;88.18
60069;BME280;45945;53.350;55.922;2022-10-16T02:39:09;100833.44;;;7.10;88.90
60069;BME280;45945;53.350;55.922;2022-10-16T02:40:12;100832.72;;;7.13;88.83
60069;BME280;45945;53.350;55.922;2022-10-16T02:41:14;100839.38;;;7.24;88.93
60069;BME280;45945;53.350;55.922;2022-10-16T02:42:17;100831.88;;;7.30;88.72
60069;BME280;45945;53.350;55.922;2022-10-16T02:43:19;100828.41;;;7.13;89.15
60069;BME280;45945;53.350;55.922;2022-10-16T02:44:20;100831.09;;;7.15;89.65
60069;BME280;45945;53.350;55.922;2022-10-16T02:45:21;100835.97;;;7.08;89.78
60069;BME280;45945;53.350;55.922;2022-10-16T02:46:23;100835.41;;;7.14;89.58
60069;BME280;45945;53.350;55.922;2022-10-16T02:47:24;100836.91;;;7.10;89.65
60069;BME280;45945;53.350;55.922;2022-10-16T02:48:24;100836.13;;;7.12;89.47
60069;BME280;45945;53.350;55.922;2022-10-16T02:49:25;100830.59;;;7.05;89.82
60069;BME280;45945;53.350;55.922;2022-10-16T02:50:26;100833.53;;;7.12;89.82
60069;BME280;45945;53.350;55.922;2022-10-16T02:51:27;100841.97;;;7.24;89.08
60069;BME280;45945;53.350;55.922;2022-10-16T02:52:28;100835.56;;;7.17;89.70
60069;BME280;45945;53.350;55.922;2022-10-16T02:53:29;100837.00;;;7.28;89.52
60069;BME280;45945;53.350;55.922;2022-10-16T02:54:30;100839.78;;;7.32;89.12
60069;BME280;45945;53.350;55.922;2022-10-16T02:55:31;100830.84;;;7.26;89.34
60069;BME280;45945;53.350;55.922;2022-10-16T02:56:33;100843.69;;;7.40;88.83
60069;BME280;45945;53.350;55.922;2022-10-16T02:57:34;100842.69;;;7.38;88.62
60069;BME280;45945;53.350;55.922;2022-10-16T02:58:37;100844.75;;;7.43;88.13
60069;BME280;45945;53.350;55.922;2022-10-16T02:59:38;100840.09;;;7.38;88.27
60069;BME280;45945;53.350;55.922;2022-10-16T03:00:39;100843.69;;;7.40;88.75
60069;BME280;45945;53.350;55.922;2022-10-16T03:01:40;100849.47;;;7.51;88.02
60069;BME280;45945;53.350;55.922;2022-10-16T03:02:41;100850.25;;;7.50;87.96
60069;BME280;45945;53.350;55.922;2022-10-16T03:03:42;100841.72;;;7.52;88.14
60069;BME280;45945;53.350;55.922;2022-10-16T03:04:43;100840.66;;;7.49;88.10
60069;BME280;45945;53.350;55.922;2022-10-16T03:05:44;100852.13;;;7.52;87.87
60069;BME280;45945;53.350;55.922;2022-10-16T03:06:48;100854.34;;;7.44;87.59
60069;BME280;45945;53.350;55.922;2022-10-16T03:07:49;100848.22;;;7.44;87.61
60069;BME280;45945;53.350;55.922;2022-10-16T03:08:50;100855.31;;;7.47;87.94
60069;BME280;45945;53.350;55.922;2022-10-16T03:09:51;100855.06;;;7.42;88.17
60069;BME280;45945;53.350;55.922;2022-10-16T03:10:52;100851.13;;;7.50;87.70
60069;BME280;45945;53.350;55.922;2022-10-16T03:11:53;100861.16;;;7.59;87.48
60069;BME280;45945;53.350;55.922;2022-10-16T03:12:54;100851.75;;;7.44;88.02
60069;BME280;45945;53.350;55.922;2022-10-16T03:13:54;100852.13;;;7.52;87.90
60069;BME280;45945;53.350;55.922;2022-10-16T03:14:56;100852.22;;;7.54;87.94
60069;BME280;45945;53.350;55.922;2022-10-16T03:15:57;100853.34;;;7.42;88.01
60069;BME280;45945;53.350;55.922;2022-10-16T03:16:58;100860.59;;;7.48;88.49
60069;BME280;45945;53.350;55.922;2022-10-16T03:17:59;100863.25;;;7.66;87.52
60069;BME280;45945;53.350;55.922;2022-10-16T03:19:00;100859.25;;;7.73;87.40
60069;BME280;45945;53.350;55.922;2022-10-16T03:20:01;100859.19;;;7.55;87.71
60069;BME280;45945;53.350;55.922;2022-10-16T03:21:02;100864.66;;;7.59;87.94
60069;BME280;45945;53.350;55.922;2022-10-16T03:22:03;100863.50;;;7.54;88.23
60069;BME280;45945;53.350;55.922;2022-10-16T03:23:04;100856.19;;;7.47;88.40
60069;BME280;45945;53.350;55.922;2022-10-16T03:24:05;100859.88;;;7.51;88.54
60069;BME280;45945;53.350;55.922;2022-10-16T03:25:07;100864.66;;;7.59;88.81
60069;BME280;45945;53.350;55.922;2022-10-16T03:26:08;100860.75;;;7.68;88.24
60069;BME280;45945;53.350;55.922;2022-10-16T03:27:09;100866.88;;;7.86;87.35
60069;BME280;45945;53.350;55.922;2022-10-16T03:28:10;100866.44;;;7.60;87.88
60069;BME280;45945;53.350;55.922;2022-10-16T03:29:11;100874.72;;;7.70;87.87
60069;BME280;45945;53.350;55.922;2022-10-16T03:30:12;100874.78;;;7.71;87.69
60069;BME280;45945;53.350;55.922;2022-10-16T03:31:13;100868.63;;;7.69;88.26
60069;BME280;45945;53.350;55.922;2022-10-16T03:32:14;100870.25;;;7.84;87.25
60069;BME280;45945;53.350;55.922;2022-10-16T03:33:15;100866.72;;;7.83;87.27
60069;BME280;45945;53.350;55.922;2022-10-16T03:34:16;100874.31;;;7.78;87.82
60069;BME280;45945;53.350;55.922;2022-10-16T03:35:17;100868.59;;;7.86;87.70
60069;BME280;45945;53.350;55.922;2022-10-16T03:36:18;100877.13;;;7.83;87.56
60069;BME280;45945;53.350;55.922;2022-10-16T03:37:18;100870.81;;;7.78;88.25
60069;BME280;45945;53.350;55.922;2022-10-16T03:38:20;100874.16;;;7.75;88.26
60069;BME280;45945;53.350;55.922;2022-10-16T03:39:21;100875.88;;;7.75;88.17
60069;BME280;45945;53.350;55.922;2022-10-16T03:40:22;100880.06;;;7.89;87.52
60069;BME280;45945;53.350;55.922;2022-10-16T03:41:23;100881.53;;;7.84;88.01
60069;BME280;45945;53.350;55.922;2022-10-16T03:42:24;100877.91;;;7.80;87.95
60069;BME280;45945;53.350;55.922;2022-10-16T03:43:25;100879.34;;;7.75;88.11
60069;BME280;45945;53.350;55.922;2022-10-16T03:44:26;100870.47;;;7.88;88.37
60069;BME280;45945;53.350;55.922;2022-10-16T03:45:27;100876.88;;;7.95;87.47
60069;BME280;45945;53.350;55.922;2022-10-16T03:46:28;100880.91;;;7.88;87.00
60069;BME280;45945;53.350;55.922;2022-10-16T03:47:30;100881.53;;;7.84;87.90
60069;BME280;45945;53.350;55.922;2022-10-16T03:48:33;100874.41;;;7.63;87.91
60069;BME280;45945;53.350;55.922;2022-10-16T03:49:34;100882.53;;;7.70;87.86
60069;BME280;45945;53.350;55.922;2022-10-16T03:50:35;100885.44;;;7.76;88.08
60069;BME280;45945;53.350;55.922;2022-10-16T03:51:36;100880.66;;;7.84;87.66
60069;BME280;45945;53.350;55.922;2022-10-16T03:52:38;100887.56;;;7.83;88.12
60069;BME280;45945;53.350;55.922;2022-10-16T03:53:39;100887.56;;;7.83;88.37
60069;BME280;45945;53.350;55.922;2022-10-16T03:54:40;100890.06;;;7.81;88.03
60069;BME280;45945;53.350;55.922;2022-10-16T03:55:41;100887.72;;;7.70;88.49
60069;BME280;45945;53.350;55.922;2022-10-16T03:56:42;100887.22;;;7.93;87.76
60069;BME280;45945;53.350;55.922;2022-10-16T03:57:43;100896.81;;;7.94;87.53
60069;BME280;45945;53.350;55.922;2022-10-16T03:58:44;100900.22;;;7.93;87.22
60069;BME280;45945;53.350;55.922;2022-10-16T03:59:46;100896.06;;;7.97;87.19
60069;BME280;45945;53.350;55.922;2022-10-16T04:00:47;100892.59;;;7.96;86.97
60069;BME280;45945;53.350;55.922;2022-10-16T04:01:49;100895.34;;;7.99;87.32
60069;BME280;45945;53.350;55.922;2022-10-16T04:02:49;100893.50;;;7.80;88.02
60069;BME280;45945;53.350;55.922;2022-10-16T04:03:50;100889.50;;;7.87;87.90
60069;BME280;45945;53.350;55.922;2022-10-16T04:04:52;100894.63;;;7.86;88.00
60069;BME280;45945;53.350;55.922;2022-10-16T04:05:53;100890.22;;;7.85;88.24
60069;BME280;45945;53.350;55.922;2022-10-16T04:06:54;100888.78;;;7.90;87.77
60069;BME280;45945;53.350;55.922;2022-10-16T04:07:54;100899.13;;;7.88;88.13
60069;BME280;45945;53.350;55.922;2022-10-16T04:08:55;100903.81;;;7.95;88.25
60069;BME280;45945;53.350;55.922;2022-10-16T04:09:56;100887.13;;;7.92;88.16
60069;BME280;45945;53.350;55.922;2022-10-16T04:10:59;100894.47;;;7.99;88.36
60069;BME280;45945;53.350;55.922;2022-10-16T04:12:00;100896.59;;;7.90;88.65
60069;BME280;45945;53.350;55.922;2022-10-16T04:13:01;100893.91;;;7.88;89.25
60069;BME280;45945;53.350;55.922;2022-10-16T04:14:02;100899.28;;;7.91;89.17
60069;BME280;45945;53.350;55.922;2022-10-16T04:15:03;100893.06;;;7.89;88.76
60069;BME280;45945;53.350;55.922;2022-10-16T04:16:04;100906.63;;;8.00;88.81
60069;BME280;45945;53.350;55.922;2022-10-16T04:17:05;100904.25;;;7.70;89.95
60069;BME280;45945;53.350;55.922;2022-10-16T04:18:06;100906.19;;;7.74;90.23
60069;BME280;45945;53.350;55.922;2022-10-16T04:19:09;100907.91;;;7.74;89.84
60069;BME280;45945;53.350;55.922;2022-10-16T04:20:10;100895.84;;;7.76;89.62
60069;BME280;45945;53.350;55.922;2022-10-16T04:21:10;100920.59;;;7.68;89.92
60069;BME280;45945;53.350;55.922;2022-10-16T04:22:14;100909.06;;;7.62;89.64
60069;BME280;45945;53.350;55.922;2022-10-16T04:23:15;100904.81;;;7.65;90.01
60069;BME280;45945;53.350;55.922;2022-10-16T04:24:16;100922.47;;;7.70;89.81
60069;BME280;45945;53.350;55.922;2022-10-16T04:25:17;100906.34;;;7.77;89.62
60069;BME280;45945;53.350;55.922;2022-10-16T04:26:18;100908.78;;;7.91;89.15
60069;BME280;45945;53.350;55.922;2022-10-16T04:27:19;100917.50;;;7.91;89.11
60069;BME280;45945;53.350;55.922;2022-10-16T04:28:20;100910.66;;;7.93;88.85
60069;BME280;45945;53.350;55.922;2022-10-16T04:29:23;100915.44;;;8.02;88.82
60069;BME280;45945;53.350;55.922;2022-10-16T04:30:24;100915.28;;;7.99;88.54
60069;BME280;45945;53.350;55.922;2022-10-16T04:31:26;100912.44;;;7.94;88.45
60069;BME280;45945;53.350;55.922;2022-10-16T04:32:26;100916.16;;;7.99;88.15
60069;BME280;45945;53.350;55.922;2022-10-16T04:33:28;100916.25;;;8.01;88.60
60069;BME280;45945;53.350;55.922;2022-10-16T04:34:28;100920.09;;;8.08;88.94
60069;BME280;45945;53.350;55.922;2022-10-16T04:35:29;100924.38;;;8.07;88.87
60069;BME280;45945;53.350;55.922;2022-10-16T04:36:30;100922.53;;;8.05;88.39
60069;BME280;45945;53.350;55.922;2022-10-16T04:37:32;100920.97;;;8.08;88.31
60069;BME280;45945;53.350;55.922;2022-10-16T04:38:33;100925.13;;;8.05;88.54
60069;BME280;45945;53.350;55.922;2022-10-16T04:39:34;100931.72;;;7.98;89.05
60069;BME280;45945;53.350;55.922;2022-10-16T04:40:35;100925.22;;;7.90;89.13
60069;BME280;45945;53.350;55.922;2022-10-16T04:41:39;100923.50;;;7.90;89.25
60069;BME280;45945;53.350;55.922;2022-10-16T04:42:40;100932.28;;;7.92;89.63
60069;BME280;45945;53.350;55.922;2022-10-16T04:43:41;100931.94;;;8.03;89.31
60069;BME280;45945;53.350;55.922;2022-10-16T04:44:42;100926.97;;;8.07;89.38
60069;BME280;45945;53.350;55.922;2022-10-16T04:45:43;100919.31;;;8.10;88.62
60069;BME280;45945;53.350;55.922;2022-10-16T04:46:44;100939.00;;;8.22;88.33
60069;BME280;45945;53.350;55.922;2022-10-16T04:47:45;100936.81;;;8.13;88.59
60069;BME280;45945;53.350;55.922;2022-10-16T04:48:46;100932.72;;;8.18;88.54
60069;BME280;45945;53.350;55.922;2022-10-16T04:49:47;100935.25;;;8.16;88.56
60069;BME280;45945;53.350;55.922;2022-10-16T04:50:48;100939.75;;;8.19;88.57
60069;BME280;45945;53.350;55.922;2022-10-16T04:51:49;100941.53;;;8.20;88.34
60069;BME280;45945;53.350;55.922;2022-10-16T04:52:50;100941.22;;;8.14;89.06
60069;BME280;45945;53.350;55.922;2022-10-16T04:53:51;100933.25;;;8.11;88.86
60069;BME280;45945;53.350;55.922;2022-10-16T04:54:52;100943.84;;;8.14;88.85
60069;BME280;45945;53.350;55.922;2022-10-16T04:55:54;100932.50;;;8.13;88.37
60069;BME280;45945;53.350;55.922;2022-10-16T04:56:55;100951.28;;;8.24;88.54
60069;BME280;45945;53.350;55.922;2022-10-16T04:57:56;100947.22;;;8.29;88.11
60069;BME280;45945;53.350;55.922;2022-10-16T04:58:57;100946.00;;;8.23;88.15
60069;BME280;45945;53.350;55.922;2022-10-16T04:59:58;100939.59;;;8.16;88.40
60069;BME280;45945;53.350;55.922;2022-10-16T05:00:59;100943.00;;;8.15;89.05
60069;BME280;45945;53.350;55.922;2022-10-16T05:02:00;100951.28;;;8.24;88.30
60069;BME280;45945;53.350;55.922;2022-10-16T05:03:01;100955.38;;;8.19;88.39
60069;BME280;45945;53.350;55.922;2022-10-16T05:04:02;100948.34;;;8.18;88.20
60069;BME280;45945;53.350;55.922;2022-10-16T05:05:04;100956.91;;;8.32;87.85
60069;BME280;45945;53.350;55.922;2022-10-16T05:06:06;100954.38;;;8.33;87.53
60069;BME280;45945;53.350;55.922;2022-10-16T05:07:08;100951.19;;;8.23;87.82
60069;BME280;45945;53.350;55.922;2022-10-16T05:08:09;100957.72;;;8.31;87.63
60069;BME280;45945;53.350;55.922;2022-10-16T05:09:10;100950.78;;;8.31;87.71
60069;BME280;45945;53.350;55.922;2022-10-16T05:10:11;100955.22;;;8.16;87.75
60069;BME280;45945;53.350;55.922;2022-10-16T05:11:12;100953.47;;;8.33;87.42
60069;BME280;45945;53.350;55.922;2022-10-16T05:12:13;100954.38;;;8.33;87.33
60069;BME280;45945;53.350;55.922;2022-10-16T05:13:14;100962.63;;;8.25;88.00
60069;BME280;45945;53.350;55.922;2022-10-16T05:14:15;100956.41;;;8.23;88.24
60069;BME280;45945;53.350;55.922;2022-10-16T05:15:16;100955.44;;;8.21;88.00
60069;BME280;45945;53.350;55.922;2022-10-16T05:16:17;100953.81;;;8.23;87.85
60069;BME280;45945;53.350;55.922;2022-10-16T05:17:18;100947.41;;;8.16;87.97
60069;BME280;45945;53.350;55.922;2022-10-16T05:18:21;100951.97;;;8.20;87.67
60069;BME280;45945;53.350;55.922;2022-10-16T05:19:22;100941.06;;;8.11;87.69
60069;BME280;45945;53.350;55.922;2022-10-16T05:20:24;100961.97;;;8.29;87.27
60069;BME280;45945;53.350;55.922;2022-10-16T05:21:24;100958.09;;;8.39;87.43
60069;BME280;45945;53.350;55.922;2022-10-16T05:22:25;100953.69;;;8.38;87.05
60069;BME280;45945;53.350;55.922;2022-10-16T05:23:26;100964.94;;;8.37;86.88
60069;BME280;45945;53.350;55.922;2022-10-16T05:24:28;100956.47;;;8.24;87.07
60069;BME280;45945;53.350;55.922;2022-10-16T05:25:29;100967.16;;;8.29;87.73
60069;BME280;45945;53.350;55.922;2022-10-16T05:26:30;100967.91;;;8.26;87.63
60069;BME280;45945;53.350;55.922;2022-10-16T05:27:31;100956.16;;;8.34;87.55
60069;BME280;45945;53.350;55.922;2022-10-16T05:28:32;100969.69;;;8.27;87.27
60069;BME280;45945;53.350;55.922;2022-10-16T05:29:33;100962.84;;;8.29;86.98
60069;BME280;45945;53.350;55.922;2022-10-16T05:30:34;100973.50;;;8.34;86.92
60069;BME280;45945;53.350;55.922;2022-10-16T05:31:37;100965.91;;;8.39;86.39
60069;BME280;45945;53.350;55.922;2022-10-16T05:32:45;100965.69;;;8.34;86.76
60069;BME280;45945;53.350;55.922;2022-10-16T05:33:46;100970.47;;;8.43;86.70
60069;BME280;45945;53.350;55.922;2022-10-16T05:34:47;100975.44;;;8.55;86.19
60069;BME280;45945;53.350;55.922;2022-10-16T05:35:48;100973.50;;;8.50;86.12
60069;BME280;45945;53.350;55.922;2022-10-16T05:36:50;100975.16;;;8.32;86.61
60069;BME280;45945;53.350;55.922;2022-10-16T05:37:52;100966.88;;;8.41;86.89
60069;BME280;45945;53.350;55.922;2022-10-16T05:38:53;100978.41;;;8.44;86.68
60069;BME280;45945;53.350;55.922;2022-10-16T05:39:54;100970.97;;;8.52;86.59
60069;BME280;45945;53.350;55.922;2022-10-16T05:40:55;100970.81;;;8.32;86.76